sensor_id;sensor_type;location;lat;lon;timestamp;temperature;humidity
702;DHT22;334;48.808;9.222;2022-08-04T00:00:24;28.00;1.00
702;DHT22;334;48.808;9.222;2022-08-04T00:01:51;28.00;1.00
702;DHT22;334;48.808;9.222;2022-08-04T00:03:17;27.90;1.00
702;DHT22;334;48.808;9.222;2022-08-04T00:06:03;27.90;1.00
702;DHT22;334;48.808;9.222;2022-08-04T00:07:17;27.90;1.00
702;DHT22;334;48.808;9.222;2022-08-04T00:08:49;27.80;1.00
702;DHT22;334;48.808;9.222;2022-08-04T00:10:02;27.80;1.00
702;DHT22;334;48.808;9.222;2022-08-04T00:11:07;27.70;1.00
702;DHT22;334;48.808;9.222;2022-08-04T00:12:16;27.70;1.00
702;DHT22;334;48.808;9.222;2022-08-04T00:13:25;27.70;1.00
702;DHT22;334;48.808;9.222;2022-08-04T00:14:29;27.70;1.00
702;DHT22;334;48.808;9.222;2022-08-04T00:15:35;27.70;1.00
702;DHT22;334;48.808;9.222;2022-08-04T00:16:40;27.60;1.00
702;DHT22;334;48.808;9.222;2022-08-04T00:17:53;27.70;1.00
702;DHT22;334;48.808;9.222;2022-08-04T00:19:17;27.60;1.00
702;DHT22;334;48.808;9.222;2022-08-04T00:20:19;27.60;1.00
702;DHT22;334;48.808;9.222;2022-08-04T00:21:24;27.60;1.00
702;DHT22;334;48.808;9.222;2022-08-04T00:22:28;27.60;1.00
702;DHT22;334;48.808;9.222;2022-08-04T00:23:33;27.60;1.00
702;DHT22;334;48.808;9.222;2022-08-04T00:24:56;27.60;1.00
702;DHT22;334;48.808;9.222;2022-08-04T00:25:59;27.70;1.00
702;DHT22;334;48.808;9.222;2022-08-04T00:27:02;27.60;1.00
702;DHT22;334;48.808;9.222;2022-08-04T00:28:04;27.60;1.00
702;DHT22;334;48.808;9.222;2022-08-04T00:29:05;27.60;1.00
702;DHT22;334;48.808;9.222;2022-08-04T00:30:08;27.30;1.00
702;DHT22;334;48.808;9.222;2022-08-04T00:31:10;27.60;1.00
702;DHT22;334;48.808;9.222;2022-08-04T00:32:17;27.50;1.00
702;DHT22;334;48.808;9.222;2022-08-04T00:33:37;27.60;1.00
702;DHT22;334;48.808;9.222;2022-08-04T00:34:39;27.60;1.00
702;DHT22;334;48.808;9.222;2022-08-04T00:35:41;27.60;1.00
702;DHT22;334;48.808;9.222;2022-08-04T00:36:45;27.60;1.00
702;DHT22;334;48.808;9.222;2022-08-04T00:37:47;27.50;1.00
702;DHT22;334;48.808;9.222;2022-08-04T00:38:50;27.50;1.00
702;DHT22;334;48.808;9.222;2022-08-04T00:39:53;27.50;1.00
702;DHT22;334;48.808;9.222;2022-08-04T00:41:07;27.50;1.00
702;DHT22;334;48.808;9.222;2022-08-04T00:46:38;27.40;1.00
702;DHT22;334;48.808;9.222;2022-08-04T00:54:58;27.30;1.00
702;DHT22;334;48.808;9.222;2022-08-04T00:58:11;27.20;1.00
702;DHT22;334;48.808;9.222;2022-08-04T01:01:02;27.30;1.00
702;DHT22;334;48.808;9.222;2022-08-04T01:02:16;27.30;1.00
702;DHT22;334;48.808;9.222;2022-08-04T01:06:58;27.10;1.00
702;DHT22;334;48.808;9.222;2022-08-04T01:10:08;26.90;1.00
702;DHT22;334;48.808;9.222;2022-08-04T01:11:26;26.90;1.00
702;DHT22;334;48.808;9.222;2022-08-04T01:15:09;26.80;1.00
702;DHT22;334;48.808;9.222;2022-08-04T01:16:16;26.80;1.00
702;DHT22;334;48.808;9.222;2022-08-04T01:17:24;26.80;1.00
702;DHT22;334;48.808;9.222;2022-08-04T01:20:08;26.70;1.00
702;DHT22;334;48.808;9.222;2022-08-04T01:26:31;26.70;1.00
702;DHT22;334;48.808;9.222;2022-08-04T01:29:21;26.70;1.00
702;DHT22;334;48.808;9.222;2022-08-04T01:30:26;26.60;1.00
702;DHT22;334;48.808;9.222;2022-08-04T01:33:02;26.70;1.00
702;DHT22;334;48.808;9.222;2022-08-04T01:34:05;26.70;1.00
702;DHT22;334;48.808;9.222;2022-08-04T01:35:16;26.70;1.00
702;DHT22;334;48.808;9.222;2022-08-04T01:36:23;26.70;1.00
702;DHT22;334;48.808;9.222;2022-08-04T01:38:46;26.70;1.00
702;DHT22;334;48.808;9.222;2022-08-04T01:39:50;26.70;1.00
702;DHT22;334;48.808;9.222;2022-08-04T01:41:02;26.60;1.00
702;DHT22;334;48.808;9.222;2022-08-04T01:42:05;26.60;1.00
702;DHT22;334;48.808;9.222;2022-08-04T01:43:12;26.60;1.00
702;DHT22;334;48.808;9.222;2022-08-04T01:44:15;26.60;1.00
702;DHT22;334;48.808;9.222;2022-08-04T01:45:19;26.60;1.00
702;DHT22;334;48.808;9.222;2022-08-04T01:46:25;26.60;1.00
702;DHT22;334;48.808;9.222;2022-08-04T01:47:28;26.50;1.00
702;DHT22;334;48.808;9.222;2022-08-04T01:48:31;26.50;1.00
702;DHT22;334;48.808;9.222;2022-08-04T01:49:34;26.50;1.00
702;DHT22;334;48.808;9.222;2022-08-04T01:50:42;26.50;1.00
702;DHT22;334;48.808;9.222;2022-08-04T01:51:49;26.40;1.00
702;DHT22;334;48.808;9.222;2022-08-04T01:52:53;26.40;1.00
702;DHT22;334;48.808;9.222;2022-08-04T01:53:54;26.40;1.00
702;DHT22;334;48.808;9.222;2022-08-04T01:54:56;26.40;1.00
702;DHT22;334;48.808;9.222;2022-08-04T01:56:00;26.40;1.00
702;DHT22;334;48.808;9.222;2022-08-04T01:57:04;26.40;1.00
702;DHT22;334;48.808;9.222;2022-08-04T01:58:29;26.40;1.00
702;DHT22;334;48.808;9.222;2022-08-04T01:59:31;26.40;1.00
702;DHT22;334;48.808;9.222;2022-08-04T02:00:36;26.40;1.00
702;DHT22;334;48.808;9.222;2022-08-04T02:01:42;26.30;1.00
702;DHT22;334;48.808;9.222;2022-08-04T02:02:45;26.30;1.00
702;DHT22;334;48.808;9.222;2022-08-04T02:03:47;26.30;1.00
702;DHT22;334;48.808;9.222;2022-08-04T02:05:10;26.30;1.00
702;DHT22;334;48.808;9.222;2022-08-04T02:06:32;26.20;1.00
702;DHT22;334;48.808;9.222;2022-08-04T02:08:12;26.20;1.00
702;DHT22;334;48.808;9.222;2022-08-04T02:09:37;26.20;1.00
702;DHT22;334;48.808;9.222;2022-08-04T02:11:06;26.20;1.00
702;DHT22;334;48.808;9.222;2022-08-04T02:12:18;26.10;1.00
702;DHT22;334;48.808;9.222;2022-08-04T02:20:04;25.90;1.00
702;DHT22;334;48.808;9.222;2022-08-04T02:21:07;25.90;1.00
702;DHT22;334;48.808;9.222;2022-08-04T02:22:16;25.90;1.00
702;DHT22;334;48.808;9.222;2022-08-04T02:23:35;25.90;1.00
702;DHT22;334;48.808;9.222;2022-08-04T02:24:48;25.80;1.00
702;DHT22;334;48.808;9.222;2022-08-04T02:26:02;25.80;1.00
702;DHT22;334;48.808;9.222;2022-08-04T02:27:05;25.80;1.00
702;DHT22;334;48.808;9.222;2022-08-04T02:29:45;25.80;1.00
702;DHT22;334;48.808;9.222;2022-08-04T02:31:07;25.80;1.00
702;DHT22;334;48.808;9.222;2022-08-04T02:32:26;25.80;1.00
702;DHT22;334;48.808;9.222;2022-08-04T02:33:43;25.90;1.00
702;DHT22;334;48.808;9.222;2022-08-04T02:35:04;25.90;1.00
702;DHT22;334;48.808;9.222;2022-08-04T02:36:10;25.90;1.00
702;DHT22;334;48.808;9.222;2022-08-04T02:37:19;25.90;1.00
702;DHT22;334;48.808;9.222;2022-08-04T02:39:58;25.90;1.00
702;DHT22;334;48.808;9.222;2022-08-04T02:41:03;26.00;1.00
702;DHT22;334;48.808;9.222;2022-08-04T02:42:06;25.90;1.00
702;DHT22;334;48.808;9.222;2022-08-04T02:43:12;25.90;1.00
702;DHT22;334;48.808;9.222;2022-08-04T02:44:21;25.90;1.00
702;DHT22;334;48.808;9.222;2022-08-04T02:45:24;26.00;1.00
702;DHT22;334;48.808;9.222;2022-08-04T02:46:28;25.80;1.00
702;DHT22;334;48.808;9.222;2022-08-04T02:47:31;26.00;1.00
702;DHT22;334;48.808;9.222;2022-08-04T02:48:55;25.80;1.00
702;DHT22;334;48.808;9.222;2022-08-04T02:49:57;26.00;1.00
702;DHT22;334;48.808;9.222;2022-08-04T02:51:02;26.00;1.00
702;DHT22;334;48.808;9.222;2022-08-04T02:52:06;26.00;1.00
702;DHT22;334;48.808;9.222;2022-08-04T02:53:14;26.00;1.00
702;DHT22;334;48.808;9.222;2022-08-04T02:54:24;26.00;1.00
702;DHT22;334;48.808;9.222;2022-08-04T02:55:34;26.00;1.00
702;DHT22;334;48.808;9.222;2022-08-04T02:56:37;26.00;1.00
702;DHT22;334;48.808;9.222;2022-08-04T02:57:41;26.00;1.00
702;DHT22;334;48.808;9.222;2022-08-04T02:59:22;26.00;1.00
702;DHT22;334;48.808;9.222;2022-08-04T03:00:15;26.00;1.00
702;DHT22;334;48.808;9.222;2022-08-04T03:01:18;26.00;1.00
702;DHT22;334;48.808;9.222;2022-08-04T03:02:29;26.00;1.00
702;DHT22;334;48.808;9.222;2022-08-04T03:03:40;26.00;1.00
702;DHT22;334;48.808;9.222;2022-08-04T03:04:57;26.00;1.00
702;DHT22;334;48.808;9.222;2022-08-04T03:06:25;26.00;1.00
702;DHT22;334;48.808;9.222;2022-08-04T03:15:16;26.00;1.00
702;DHT22;334;48.808;9.222;2022-08-04T03:16:49;25.90;1.00
702;DHT22;334;48.808;9.222;2022-08-04T03:22:41;25.80;1.00
702;DHT22;334;48.808;9.222;2022-08-04T03:26:24;25.70;1.00
702;DHT22;334;48.808;9.222;2022-08-04T03:31:42;25.50;1.00
702;DHT22;334;48.808;9.222;2022-08-04T03:38:02;25.50;1.00
702;DHT22;334;48.808;9.222;2022-08-04T03:42:28;25.40;1.00
702;DHT22;334;48.808;9.222;2022-08-04T03:44:02;25.40;1.00
702;DHT22;334;48.808;9.222;2022-08-04T03:45:33;25.40;1.00
702;DHT22;334;48.808;9.222;2022-08-04T03:49:51;25.40;1.00
702;DHT22;334;48.808;9.222;2022-08-04T03:51:37;25.30;1.00
702;DHT22;334;48.808;9.222;2022-08-04T03:58:07;25.40;1.00
702;DHT22;334;48.808;9.222;2022-08-04T04:02:25;25.30;1.00
702;DHT22;334;48.808;9.222;2022-08-04T04:06:27;25.30;1.00
702;DHT22;334;48.808;9.222;2022-08-04T04:07:53;25.30;1.00
702;DHT22;334;48.808;9.222;2022-08-04T04:10:23;25.30;1.00
702;DHT22;334;48.808;9.222;2022-08-04T04:13:45;25.40;1.00
702;DHT22;334;48.808;9.222;2022-08-04T04:15:06;25.30;1.00
702;DHT22;334;48.808;9.222;2022-08-04T04:16:36;25.30;1.00
702;DHT22;334;48.808;9.222;2022-08-04T04:18:21;25.20;1.00
702;DHT22;334;48.808;9.222;2022-08-04T04:24:32;25.10;1.00
702;DHT22;334;48.808;9.222;2022-08-04T04:26:56;25.10;1.00
702;DHT22;334;48.808;9.222;2022-08-04T04:28:45;25.10;1.00
702;DHT22;334;48.808;9.222;2022-08-04T04:30:07;25.10;1.00
702;DHT22;334;48.808;9.222;2022-08-04T04:31:51;25.10;1.00
702;DHT22;334;48.808;9.222;2022-08-04T04:33:20;25.20;1.00
702;DHT22;334;48.808;9.222;2022-08-04T04:34:52;25.20;1.00
702;DHT22;334;48.808;9.222;2022-08-04T04:36:10;25.20;1.00
702;DHT22;334;48.808;9.222;2022-08-04T04:37:18;25.20;1.00
702;DHT22;334;48.808;9.222;2022-08-04T04:38:30;25.20;1.00
702;DHT22;334;48.808;9.222;2022-08-04T04:41:17;25.20;1.00
702;DHT22;334;48.808;9.222;2022-08-04T04:42:47;25.20;1.00
702;DHT22;334;48.808;9.222;2022-08-04T04:44:35;25.30;1.00
702;DHT22;334;48.808;9.222;2022-08-04T04:45:56;25.30;1.00
702;DHT22;334;48.808;9.222;2022-08-04T04:47:08;25.10;1.00
702;DHT22;334;48.808;9.222;2022-08-04T04:49:50;25.10;1.00
702;DHT22;334;48.808;9.222;2022-08-04T04:51:09;25.20;1.00
702;DHT22;334;48.808;9.222;2022-08-04T04:52:48;25.20;1.00
702;DHT22;334;48.808;9.222;2022-08-04T04:53:56;25.10;1.00
702;DHT22;334;48.808;9.222;2022-08-04T04:56:14;25.10;1.00
702;DHT22;334;48.808;9.222;2022-08-04T04:57:19;25.20;1.00
702;DHT22;334;48.808;9.222;2022-08-04T04:58:42;25.20;1.00
702;DHT22;334;48.808;9.222;2022-08-04T04:59:54;25.20;1.00
702;DHT22;334;48.808;9.222;2022-08-04T05:06:27;25.10;1.00
702;DHT22;334;48.808;9.222;2022-08-04T05:11:20;25.10;1.00
702;DHT22;334;48.808;9.222;2022-08-04T05:14:46;25.10;1.00
702;DHT22;334;48.808;9.222;2022-08-04T05:15:52;25.10;1.00
702;DHT22;334;48.808;9.222;2022-08-04T05:17:05;25.10;1.00
702;DHT22;334;48.808;9.222;2022-08-04T05:18:18;25.10;1.00
702;DHT22;334;48.808;9.222;2022-08-04T05:19:39;25.20;1.00
702;DHT22;334;48.808;9.222;2022-08-04T05:20:46;25.10;1.00
702;DHT22;334;48.808;9.222;2022-08-04T05:21:55;25.20;1.00
702;DHT22;334;48.808;9.222;2022-08-04T05:23:07;25.10;1.00
702;DHT22;334;48.808;9.222;2022-08-04T05:24:14;25.10;1.00
702;DHT22;334;48.808;9.222;2022-08-04T05:25:40;25.20;1.00
702;DHT22;334;48.808;9.222;2022-08-04T05:27:04;25.10;1.00
702;DHT22;334;48.808;9.222;2022-08-04T05:28:21;25.20;1.00
702;DHT22;334;48.808;9.222;2022-08-04T05:29:37;25.20;1.00
702;DHT22;334;48.808;9.222;2022-08-04T05:30:46;25.20;1.00
702;DHT22;334;48.808;9.222;2022-08-04T05:31:51;25.20;1.00
702;DHT22;334;48.808;9.222;2022-08-04T05:32:56;25.20;1.00
702;DHT22;334;48.808;9.222;2022-08-04T05:34:27;25.30;1.00
702;DHT22;334;48.808;9.222;2022-08-04T05:37:02;25.40;1.00
702;DHT22;334;48.808;9.222;2022-08-04T05:38:09;25.50;1.00
702;DHT22;334;48.808;9.222;2022-08-04T05:39:18;25.60;1.00
702;DHT22;334;48.808;9.222;2022-08-04T05:40:22;25.70;1.00
702;DHT22;334;48.808;9.222;2022-08-04T05:41:27;25.70;1.00
702;DHT22;334;48.808;9.222;2022-08-04T05:42:47;25.70;1.00
702;DHT22;334;48.808;9.222;2022-08-04T05:43:50;25.80;1.00
702;DHT22;334;48.808;9.222;2022-08-04T05:44:54;25.90;1.00
702;DHT22;334;48.808;9.222;2022-08-04T05:45:57;25.90;1.00
702;DHT22;334;48.808;9.222;2022-08-04T05:47:02;26.00;1.00
702;DHT22;334;48.808;9.222;2022-08-04T05:48:06;26.10;1.00
702;DHT22;334;48.808;9.222;2022-08-04T05:49:09;26.10;1.00
702;DHT22;334;48.808;9.222;2022-08-04T05:50:17;26.20;1.00
702;DHT22;334;48.808;9.222;2022-08-04T05:51:21;26.20;1.00
702;DHT22;334;48.808;9.222;2022-08-04T05:52:24;26.30;1.00
702;DHT22;334;48.808;9.222;2022-08-04T05:53:27;26.30;1.00
702;DHT22;334;48.808;9.222;2022-08-04T05:54:31;26.40;1.00
702;DHT22;334;48.808;9.222;2022-08-04T05:55:33;26.60;1.00
702;DHT22;334;48.808;9.222;2022-08-04T05:56:56;26.50;1.00
702;DHT22;334;48.808;9.222;2022-08-04T05:57:59;26.60;1.00
702;DHT22;334;48.808;9.222;2022-08-04T05:59:03;26.70;1.00
702;DHT22;334;48.808;9.222;2022-08-04T06:00:07;26.70;1.00
702;DHT22;334;48.808;9.222;2022-08-04T06:01:30;26.80;1.00
702;DHT22;334;48.808;9.222;2022-08-04T06:02:53;26.90;1.00
702;DHT22;334;48.808;9.222;2022-08-04T06:03:59;27.10;1.00
702;DHT22;334;48.808;9.222;2022-08-04T06:05:02;27.10;1.00
702;DHT22;334;48.808;9.222;2022-08-04T06:06:07;27.20;1.00
702;DHT22;334;48.808;9.222;2022-08-04T06:07:10;27.40;1.00
702;DHT22;334;48.808;9.222;2022-08-04T06:08:13;27.40;1.00
702;DHT22;334;48.808;9.222;2022-08-04T06:09:15;27.60;1.00
702;DHT22;334;48.808;9.222;2022-08-04T06:10:18;27.60;1.00
702;DHT22;334;48.808;9.222;2022-08-04T06:11:30;27.70;1.00
702;DHT22;334;48.808;9.222;2022-08-04T06:12:59;27.80;1.00
702;DHT22;334;48.808;9.222;2022-08-04T06:14:04;27.80;1.00
702;DHT22;334;48.808;9.222;2022-08-04T06:15:10;27.90;1.00
702;DHT22;334;48.808;9.222;2022-08-04T06:16:17;28.00;1.00
702;DHT22;334;48.808;9.222;2022-08-04T06:17:39;28.00;1.00
702;DHT22;334;48.808;9.222;2022-08-04T06:19:05;28.00;1.00
702;DHT22;334;48.808;9.222;2022-08-04T06:20:30;28.00;1.00
702;DHT22;334;48.808;9.222;2022-08-04T06:21:38;27.90;1.00
702;DHT22;334;48.808;9.222;2022-08-04T06:22:41;27.90;1.00
702;DHT22;334;48.808;9.222;2022-08-04T06:23:44;28.00;1.00
702;DHT22;334;48.808;9.222;2022-08-04T06:25:02;28.00;1.00
702;DHT22;334;48.808;9.222;2022-08-04T06:26:09;28.00;1.00
702;DHT22;334;48.808;9.222;2022-08-04T06:27:13;28.00;1.00
702;DHT22;334;48.808;9.222;2022-08-04T06:28:16;28.00;1.00
702;DHT22;334;48.808;9.222;2022-08-04T06:29:20;27.90;1.00
702;DHT22;334;48.808;9.222;2022-08-04T06:30:33;27.80;1.00
702;DHT22;334;48.808;9.222;2022-08-04T06:31:37;27.90;1.00
702;DHT22;334;48.808;9.222;2022-08-04T06:33:19;27.90;1.00
702;DHT22;334;48.808;9.222;2022-08-04T06:35:00;28.00;1.00
702;DHT22;334;48.808;9.222;2022-08-04T06:36:05;28.00;1.00
702;DHT22;334;48.808;9.222;2022-08-04T06:37:08;28.00;1.00
702;DHT22;334;48.808;9.222;2022-08-04T06:38:11;28.00;1.00
702;DHT22;334;48.808;9.222;2022-08-04T06:39:14;27.90;1.00
702;DHT22;334;48.808;9.222;2022-08-04T06:40:19;27.80;1.00
702;DHT22;334;48.808;9.222;2022-08-04T06:41:33;27.80;1.00
702;DHT22;334;48.808;9.222;2022-08-04T06:43:05;27.80;1.00
702;DHT22;334;48.808;9.222;2022-08-04T06:44:09;27.70;1.00
702;DHT22;334;48.808;9.222;2022-08-04T06:45:12;27.80;1.00
702;DHT22;334;48.808;9.222;2022-08-04T06:46:15;27.70;1.00
702;DHT22;334;48.808;9.222;2022-08-04T06:47:18;27.70;1.00
702;DHT22;334;48.808;9.222;2022-08-04T06:48:23;27.80;1.00
702;DHT22;334;48.808;9.222;2022-08-04T06:49:34;27.70;1.00
702;DHT22;334;48.808;9.222;2022-08-04T06:50:59;27.70;1.00
702;DHT22;334;48.808;9.222;2022-08-04T06:52:22;27.80;1.00
702;DHT22;334;48.808;9.222;2022-08-04T06:53:24;27.80;1.00
702;DHT22;334;48.808;9.222;2022-08-04T06:54:26;27.80;1.00
702;DHT22;334;48.808;9.222;2022-08-04T06:55:28;27.80;1.00
702;DHT22;334;48.808;9.222;2022-08-04T06:56:33;27.80;1.00
702;DHT22;334;48.808;9.222;2022-08-04T06:57:35;27.80;1.00
702;DHT22;334;48.808;9.222;2022-08-04T06:58:38;27.90;1.00
702;DHT22;334;48.808;9.222;2022-08-04T07:00:07;28.00;1.00
702;DHT22;334;48.808;9.222;2022-08-04T07:01:14;27.90;1.00
702;DHT22;334;48.808;9.222;2022-08-04T07:02:20;27.90;1.00
702;DHT22;334;48.808;9.222;2022-08-04T07:03:23;27.90;1.00
702;DHT22;334;48.808;9.222;2022-08-04T07:04:24;27.90;1.00
702;DHT22;334;48.808;9.222;2022-08-04T07:05:27;27.90;1.00
702;DHT22;334;48.808;9.222;2022-08-04T07:06:29;27.90;1.00
702;DHT22;334;48.808;9.222;2022-08-04T07:07:32;27.90;1.00
702;DHT22;334;48.808;9.222;2022-08-04T07:08:37;27.90;1.00
702;DHT22;334;48.808;9.222;2022-08-04T07:09:40;27.90;1.00
702;DHT22;334;48.808;9.222;2022-08-04T07:10:43;28.10;1.00
702;DHT22;334;48.808;9.222;2022-08-04T07:11:46;28.00;1.00
702;DHT22;334;48.808;9.222;2022-08-04T07:12:52;27.90;1.00
702;DHT22;334;48.808;9.222;2022-08-04T07:13:56;28.00;1.00
702;DHT22;334;48.808;9.222;2022-08-04T07:14:58;28.00;1.00
702;DHT22;334;48.808;9.222;2022-08-04T07:16:00;28.00;1.00
702;DHT22;334;48.808;9.222;2022-08-04T07:17:07;28.10;1.00
702;DHT22;334;48.808;9.222;2022-08-04T07:18:09;28.10;1.00
702;DHT22;334;48.808;9.222;2022-08-04T07:19:11;28.20;1.00
702;DHT22;334;48.808;9.222;2022-08-04T07:20:19;28.20;1.00
702;DHT22;334;48.808;9.222;2022-08-04T07:21:36;28.20;1.00
702;DHT22;334;48.808;9.222;2022-08-04T07:22:39;28.30;1.00
702;DHT22;334;48.808;9.222;2022-08-04T07:23:44;28.30;1.00
702;DHT22;334;48.808;9.222;2022-08-04T07:24:46;28.30;1.00
702;DHT22;334;48.808;9.222;2022-08-04T07:25:50;28.20;1.00
702;DHT22;334;48.808;9.222;2022-08-04T07:27:11;28.20;1.00
702;DHT22;334;48.808;9.222;2022-08-04T07:28:14;28.30;1.00
702;DHT22;334;48.808;9.222;2022-08-04T07:29:16;28.20;1.00
702;DHT22;334;48.808;9.222;2022-08-04T07:30:19;28.20;1.00
702;DHT22;334;48.808;9.222;2022-08-04T07:31:25;28.20;1.00
702;DHT22;334;48.808;9.222;2022-08-04T07:32:37;28.20;1.00
702;DHT22;334;48.808;9.222;2022-08-04T07:33:40;28.30;1.00
702;DHT22;334;48.808;9.222;2022-08-04T07:34:43;28.50;1.00
702;DHT22;334;48.808;9.222;2022-08-04T07:35:54;28.30;1.00
702;DHT22;334;48.808;9.222;2022-08-04T07:37:11;28.40;1.00
702;DHT22;334;48.808;9.222;2022-08-04T07:38:14;28.50;1.00
702;DHT22;334;48.808;9.222;2022-08-04T07:39:17;28.60;1.00
702;DHT22;334;48.808;9.222;2022-08-04T07:40:29;28.70;1.00
702;DHT22;334;48.808;9.222;2022-08-04T07:41:31;28.60;1.00
702;DHT22;334;48.808;9.222;2022-08-04T07:42:36;28.70;1.00
702;DHT22;334;48.808;9.222;2022-08-04T07:43:40;28.70;1.00
702;DHT22;334;48.808;9.222;2022-08-04T07:44:44;28.80;1.00
702;DHT22;334;48.808;9.222;2022-08-04T07:45:46;28.80;1.00
702;DHT22;334;48.808;9.222;2022-08-04T07:46:47;28.90;1.00
702;DHT22;334;48.808;9.222;2022-08-04T07:47:51;28.90;1.00
702;DHT22;334;48.808;9.222;2022-08-04T07:49:06;29.00;1.00
702;DHT22;334;48.808;9.222;2022-08-04T07:50:09;29.00;1.00
702;DHT22;334;48.808;9.222;2022-08-04T07:51:11;29.10;1.00
702;DHT22;334;48.808;9.222;2022-08-04T07:52:14;29.10;1.00
702;DHT22;334;48.808;9.222;2022-08-04T07:53:17;29.10;1.00
702;DHT22;334;48.808;9.222;2022-08-04T07:54:39;29.10;1.00
702;DHT22;334;48.808;9.222;2022-08-04T07:55:44;29.20;1.00
702;DHT22;334;48.808;9.222;2022-08-04T07:56:46;29.20;1.00
702;DHT22;334;48.808;9.222;2022-08-04T07:57:54;29.30;1.00
702;DHT22;334;48.808;9.222;2022-08-04T07:58:56;29.30;1.00
702;DHT22;334;48.808;9.222;2022-08-04T07:59:58;29.40;1.00
702;DHT22;334;48.808;9.222;2022-08-04T08:01:01;29.50;1.00
702;DHT22;334;48.808;9.222;2022-08-04T08:02:03;29.50;1.00
702;DHT22;334;48.808;9.222;2022-08-04T08:03:06;29.50;1.00
702;DHT22;334;48.808;9.222;2022-08-04T08:04:09;29.60;1.00
702;DHT22;334;48.808;9.222;2022-08-04T08:05:13;29.60;1.00
702;DHT22;334;48.808;9.222;2022-08-04T08:06:15;29.70;1.00
702;DHT22;334;48.808;9.222;2022-08-04T08:07:34;29.80;1.00
702;DHT22;334;48.808;9.222;2022-08-04T08:08:39;29.80;1.00
702;DHT22;334;48.808;9.222;2022-08-04T08:09:42;29.80;1.00
702;DHT22;334;48.808;9.222;2022-08-04T08:10:47;29.80;1.00
702;DHT22;334;48.808;9.222;2022-08-04T08:11:51;29.90;1.00
702;DHT22;334;48.808;9.222;2022-08-04T08:13:14;29.90;1.00
702;DHT22;334;48.808;9.222;2022-08-04T08:14:17;30.00;1.00
702;DHT22;334;48.808;9.222;2022-08-04T08:15:21;30.00;1.00
702;DHT22;334;48.808;9.222;2022-08-04T08:16:23;30.00;1.00
702;DHT22;334;48.808;9.222;2022-08-04T08:17:26;30.00;1.00
702;DHT22;334;48.808;9.222;2022-08-04T08:18:29;30.10;1.00
702;DHT22;334;48.808;9.222;2022-08-04T08:19:31;30.10;1.00
702;DHT22;334;48.808;9.222;2022-08-04T08:20:33;30.10;1.00
702;DHT22;334;48.808;9.222;2022-08-04T08:21:36;30.10;1.00
702;DHT22;334;48.808;9.222;2022-08-04T08:23:00;30.20;1.00
702;DHT22;334;48.808;9.222;2022-08-04T08:24:06;30.20;1.00
702;DHT22;334;48.808;9.222;2022-08-04T08:25:13;30.20;1.00
702;DHT22;334;48.808;9.222;2022-08-04T08:26:15;30.40;1.00
702;DHT22;334;48.808;9.222;2022-08-04T08:27:19;30.30;1.00
702;DHT22;334;48.808;9.222;2022-08-04T08:28:21;30.30;1.00
702;DHT22;334;48.808;9.222;2022-08-04T08:29:23;30.40;1.00
702;DHT22;334;48.808;9.222;2022-08-04T08:30:27;30.40;1.00
702;DHT22;334;48.808;9.222;2022-08-04T08:31:34;30.40;1.00
702;DHT22;334;48.808;9.222;2022-08-04T08:32:59;30.50;1.00
702;DHT22;334;48.808;9.222;2022-08-04T08:34:01;30.50;1.00
702;DHT22;334;48.808;9.222;2022-08-04T08:35:03;30.60;1.00
702;DHT22;334;48.808;9.222;2022-08-04T08:37:50;30.60;1.00
702;DHT22;334;48.808;9.222;2022-08-04T08:39:16;30.70;1.00
702;DHT22;334;48.808;9.222;2022-08-04T08:40:55;30.70;1.00
702;DHT22;334;48.808;9.222;2022-08-04T08:42:24;30.70;1.00
702;DHT22;334;48.808;9.222;2022-08-04T08:43:35;30.80;1.00
702;DHT22;334;48.808;9.222;2022-08-04T08:45:40;30.80;1.00
702;DHT22;334;48.808;9.222;2022-08-04T08:53:00;31.00;1.00
702;DHT22;334;48.808;9.222;2022-08-04T08:57:22;31.10;1.00
702;DHT22;334;48.808;9.222;2022-08-04T08:58:53;31.20;1.00
702;DHT22;334;48.808;9.222;2022-08-04T09:01:38;31.20;1.00
702;DHT22;334;48.808;9.222;2022-08-04T09:03:41;31.20;1.00
702;DHT22;334;48.808;9.222;2022-08-04T09:10:16;31.30;1.00
702;DHT22;334;48.808;9.222;2022-08-04T09:11:22;31.40;1.00
702;DHT22;334;48.808;9.222;2022-08-04T09:13:09;31.40;1.00
702;DHT22;334;48.808;9.222;2022-08-04T09:14:00;31.40;1.00
702;DHT22;334;48.808;9.222;2022-08-04T09:15:09;31.50;1.00
702;DHT22;334;48.808;9.222;2022-08-04T09:16:21;31.60;1.00
702;DHT22;334;48.808;9.222;2022-08-04T09:17:34;31.70;1.00
702;DHT22;334;48.808;9.222;2022-08-04T09:19:52;31.80;1.00
702;DHT22;334;48.808;9.222;2022-08-04T09:21:12;31.80;1.00
702;DHT22;334;48.808;9.222;2022-08-04T09:22:27;31.90;1.00
702;DHT22;334;48.808;9.222;2022-08-04T09:26:47;32.00;1.00
702;DHT22;334;48.808;9.222;2022-08-04T09:28:06;32.10;1.00
702;DHT22;334;48.808;9.222;2022-08-04T09:29:46;32.10;1.00
702;DHT22;334;48.808;9.222;2022-08-04T09:31:12;32.20;1.00
702;DHT22;334;48.808;9.222;2022-08-04T09:32:29;32.20;1.00
702;DHT22;334;48.808;9.222;2022-08-04T09:36:46;32.30;1.00
702;DHT22;334;48.808;9.222;2022-08-04T09:38:06;32.30;1.00
702;DHT22;334;48.808;9.222;2022-08-04T09:39:28;32.30;1.00
702;DHT22;334;48.808;9.222;2022-08-04T09:40:50;32.40;1.00
702;DHT22;334;48.808;9.222;2022-08-04T09:44:51;32.50;1.00
702;DHT22;334;48.808;9.222;2022-08-04T09:46:32;32.50;1.00
702;DHT22;334;48.808;9.222;2022-08-04T09:47:56;32.60;1.00
702;DHT22;334;48.808;9.222;2022-08-04T09:49:11;32.70;1.00
702;DHT22;334;48.808;9.222;2022-08-04T09:50:44;32.70;1.00
702;DHT22;334;48.808;9.222;2022-08-04T09:52:06;32.70;1.00
702;DHT22;334;48.808;9.222;2022-08-04T09:53:41;32.80;1.00
702;DHT22;334;48.808;9.222;2022-08-04T09:54:57;32.80;1.00
702;DHT22;334;48.808;9.222;2022-08-04T09:56:09;32.90;1.00
702;DHT22;334;48.808;9.222;2022-08-04T09:57:56;32.90;1.00
702;DHT22;334;48.808;9.222;2022-08-04T10:00:20;33.00;1.00
702;DHT22;334;48.808;9.222;2022-08-04T10:01:42;33.10;1.00
702;DHT22;334;48.808;9.222;2022-08-04T10:02:55;33.10;1.00
702;DHT22;334;48.808;9.222;2022-08-04T10:04:03;33.30;1.00
702;DHT22;334;48.808;9.222;2022-08-04T10:05:13;33.20;1.00
702;DHT22;334;48.808;9.222;2022-08-04T10:06:31;33.20;1.00
702;DHT22;334;48.808;9.222;2022-08-04T10:11:05;33.40;1.00
702;DHT22;334;48.808;9.222;2022-08-04T10:14:56;33.50;1.00
702;DHT22;334;48.808;9.222;2022-08-04T10:16:23;33.50;1.00
702;DHT22;334;48.808;9.222;2022-08-04T10:19:14;33.70;1.00
702;DHT22;334;48.808;9.222;2022-08-04T10:26:46;33.80;1.00
702;DHT22;334;48.808;9.222;2022-08-04T10:27:59;33.80;1.00
702;DHT22;334;48.808;9.222;2022-08-04T10:29:09;33.80;1.00
702;DHT22;334;48.808;9.222;2022-08-04T10:30:16;33.80;1.00
702;DHT22;334;48.808;9.222;2022-08-04T10:31:24;33.60;1.00
702;DHT22;334;48.808;9.222;2022-08-04T10:32:31;33.80;1.00
702;DHT22;334;48.808;9.222;2022-08-04T10:34:07;33.80;1.00
702;DHT22;334;48.808;9.222;2022-08-04T10:35:19;33.90;1.00
702;DHT22;334;48.808;9.222;2022-08-04T10:36:25;33.90;1.00
702;DHT22;334;48.808;9.222;2022-08-04T10:37:34;33.90;1.00
702;DHT22;334;48.808;9.222;2022-08-04T10:39:02;34.00;1.00
702;DHT22;334;48.808;9.222;2022-08-04T10:40:11;34.00;1.00
702;DHT22;334;48.808;9.222;2022-08-04T10:47:03;34.20;1.00
702;DHT22;334;48.808;9.222;2022-08-04T10:48:22;34.20;1.00
702;DHT22;334;48.808;9.222;2022-08-04T10:49:39;34.20;1.00
702;DHT22;334;48.808;9.222;2022-08-04T10:51:34;34.30;1.00
702;DHT22;334;48.808;9.222;2022-08-04T10:52:35;34.30;1.00
702;DHT22;334;48.808;9.222;2022-08-04T10:53:39;34.40;1.00